Aviation Digital Data Service (ADDS)

Output produced by TAFs form (2221 UTC 24 July 2016)
found at http://aviationweather.gov/adds/tafs/
 
KDRO 241740Z 2418/2518 VRB04KT P6SM SCT120 
     FM242000 26010KT P6SM SCT120 
     FM242300 30010G18KT P6SM SCT120 
     FM250100 36008KT P6SM SCT250 
     FM250700 VRB03KT P6SM SCT250